sensor_id;sensor_type;location;lat;lon;timestamp;pressure;altitude;pressure_sealevel;temperature;humidity
82784;BME280;72520;55.762;37.780;2024-03-23T00:52:55;98996.16;;;3.68;65.72
82784;BME280;72520;55.762;37.780;2024-03-23T00:55:56;98984.94;;;3.64;66.26
82784;BME280;72520;55.762;37.780;2024-03-23T00:59:00;98981.38;;;3.82;66.03
82784;BME280;72520;55.762;37.780;2024-03-23T01:02:02;98986.44;;;3.87;66.34
82784;BME280;72520;55.762;37.780;2024-03-23T01:05:04;98981.22;;;3.85;66.00
82784;BME280;72520;55.762;37.780;2024-03-23T01:08:10;98967.31;;;3.83;66.70
82784;BME280;72520;55.762;37.780;2024-03-23T01:11:12;98969.47;;;3.92;66.39
82784;BME280;72520;55.762;37.780;2024-03-23T01:14:14;98964.31;;;4.06;66.32
82784;BME280;72520;55.762;37.780;2024-03-23T01:17:15;98965.91;;;3.93;66.60
82784;BME280;72520;55.762;37.780;2024-03-23T01:20:17;98958.56;;;3.83;66.94
82784;BME280;72520;55.762;37.780;2024-03-23T01:23:20;98956.69;;;3.85;67.42
82784;BME280;72520;55.762;37.780;2024-03-23T01:26:25;98952.94;;;3.73;67.74
82784;BME280;72520;55.762;37.780;2024-03-23T01:29:29;98942.06;;;3.79;67.73
82784;BME280;72520;55.762;37.780;2024-03-23T01:32:30;98937.28;;;3.87;67.40
82784;BME280;72520;55.762;37.780;2024-03-23T01:35:33;98939.38;;;3.81;67.75
82784;BME280;72520;55.762;37.780;2024-03-23T01:38:36;98925.38;;;4.29;68.33
82784;BME280;72520;55.762;37.780;2024-03-23T01:41:40;98920.09;;;4.13;67.28
82784;BME280;72520;55.762;37.780;2024-03-23T01:44:47;98918.94;;;4.01;67.96
82784;BME280;72520;55.762;37.780;2024-03-23T01:47:49;98911.47;;;3.94;68.37
82784;BME280;72520;55.762;37.780;2024-03-23T01:50:51;98912.03;;;3.83;68.69
82784;BME280;72520;55.762;37.780;2024-03-23T01:53:54;98914.66;;;3.83;68.79
82784;BME280;72520;55.762;37.780;2024-03-23T01:57:01;98902.44;;;3.82;69.17
82784;BME280;72520;55.762;37.780;2024-03-23T02:00:02;98901.56;;;3.82;69.00
82784;BME280;72520;55.762;37.780;2024-03-23T02:03:22;98900.44;;;3.87;69.02
82784;BME280;72520;55.762;37.780;2024-03-23T02:06:25;98899.41;;;3.90;69.49
82784;BME280;72520;55.762;37.780;2024-03-23T02:09:29;98890.59;;;3.91;69.18
82784;BME280;72520;55.762;37.780;2024-03-23T02:12:32;98886.13;;;3.91;69.18
82784;BME280;72520;55.762;37.780;2024-03-23T02:15:39;98877.59;;;3.88;69.33
82784;BME280;72520;55.762;37.780;2024-03-23T02:19:01;98877.31;;;3.92;69.18
82784;BME280;72520;55.762;37.780;2024-03-23T02:22:08;98870.50;;;3.88;69.36
82784;BME280;72520;55.762;37.780;2024-03-23T02:25:18;98869.00;;;3.84;69.29
82784;BME280;72520;55.762;37.780;2024-03-23T02:28:20;98857.69;;;3.82;69.56
82784;BME280;72520;55.762;37.780;2024-03-23T02:31:23;98853.56;;;3.94;69.90
82784;BME280;72520;55.762;37.780;2024-03-23T02:34:25;98855.00;;;3.84;69.71
82784;BME280;72520;55.762;37.780;2024-03-23T02:37:27;98849.91;;;3.81;69.93
82784;BME280;72520;55.762;37.780;2024-03-23T02:40:31;98837.72;;;3.78;70.34
82784;BME280;72520;55.762;37.780;2024-03-23T02:43:32;98844.75;;;3.78;70.31
82784;BME280;72520;55.762;37.780;2024-03-23T02:46:37;98832.16;;;3.84;70.25
82784;BME280;72520;55.762;37.780;2024-03-23T02:49:42;98830.44;;;3.83;70.18
82784;BME280;72520;55.762;37.780;2024-03-23T02:52:47;98825.69;;;3.74;70.69
82784;BME280;72520;55.762;37.780;2024-03-23T02:55:51;98821.50;;;3.70;70.88
82784;BME280;72520;55.762;37.780;2024-03-23T02:58:52;98813.19;;;3.78;71.01
82784;BME280;72520;55.762;37.780;2024-03-23T03:01:54;98795.31;;;3.84;70.60
82784;BME280;72520;55.762;37.780;2024-03-23T03:04:56;98790.78;;;3.86;70.53
82784;BME280;72520;55.762;37.780;2024-03-23T03:07:58;98788.09;;;3.88;70.64
82784;BME280;72520;55.762;37.780;2024-03-23T03:11:01;98783.81;;;3.85;70.83
82784;BME280;72520;55.762;37.780;2024-03-23T03:14:06;98778.50;;;3.87;70.74
82784;BME280;72520;55.762;37.780;2024-03-23T03:17:08;98763.88;;;3.81;71.08
82784;BME280;72520;55.762;37.780;2024-03-23T03:20:13;98769.97;;;3.82;70.97
82784;BME280;72520;55.762;37.780;2024-03-23T03:23:18;98762.19;;;3.80;71.33
82784;BME280;72520;55.762;37.780;2024-03-23T03:26:21;98758.97;;;3.91;71.32
82784;BME280;72520;55.762;37.780;2024-03-23T03:29:23;98753.03;;;3.87;71.45
82784;BME280;72520;55.762;37.780;2024-03-23T03:32:28;98750.88;;;3.78;71.78
82784;BME280;72520;55.762;37.780;2024-03-23T03:35:30;98749.28;;;3.76;71.87
82784;BME280;72520;55.762;37.780;2024-03-23T03:38:32;98744.94;;;3.75;71.71
82784;BME280;72520;55.762;37.780;2024-03-23T03:42:02;98742.06;;;3.79;71.79
82784;BME280;72520;55.762;37.780;2024-03-23T03:45:07;98737.81;;;3.92;71.51
82784;BME280;72520;55.762;37.780;2024-03-23T03:48:09;98728.81;;;3.96;71.49
82784;BME280;72520;55.762;37.780;2024-03-23T03:51:14;98726.34;;;3.93;71.62
82784;BME280;72520;55.762;37.780;2024-03-23T03:54:15;98724.75;;;3.91;71.97
82784;BME280;72520;55.762;37.780;2024-03-23T03:57:18;98722.59;;;3.82;72.10
82784;BME280;72520;55.762;37.780;2024-03-23T04:00:20;98723.81;;;3.76;72.38
82784;BME280;72520;55.762;37.780;2024-03-23T04:03:22;98705.28;;;3.78;72.66
82784;BME280;72520;55.762;37.780;2024-03-23T04:06:24;98707.59;;;3.68;73.04
82784;BME280;72520;55.762;37.780;2024-03-23T04:09:28;98702.16;;;3.71;73.18
82784;BME280;72520;55.762;37.780;2024-03-23T04:12:39;98695.28;;;3.69;72.92
82784;BME280;72520;55.762;37.780;2024-03-23T04:15:42;98692.59;;;3.70;73.16
82784;BME280;72520;55.762;37.780;2024-03-23T04:18:43;98685.75;;;3.82;73.47
82784;BME280;72520;55.762;37.780;2024-03-23T04:21:46;98682.88;;;3.86;72.96
82784;BME280;72520;55.762;37.780;2024-03-23T04:24:47;98687.44;;;3.98;72.38
82784;BME280;72520;55.762;37.780;2024-03-23T04:27:51;98675.56;;;3.91;72.43
82784;BME280;72520;55.762;37.780;2024-03-23T04:30:53;98673.59;;;3.95;72.49
82784;BME280;72520;55.762;37.780;2024-03-23T04:33:56;98667.28;;;3.83;72.92
82784;BME280;72520;55.762;37.780;2024-03-23T04:36:57;98657.66;;;3.82;73.09
82784;BME280;72520;55.762;37.780;2024-03-23T04:39:59;98664.28;;;3.89;73.15
82784;BME280;72520;55.762;37.780;2024-03-23T04:43:10;98649.78;;;3.82;72.98
82784;BME280;72520;55.762;37.780;2024-03-23T04:46:14;98643.84;;;3.79;73.35
82784;BME280;72520;55.762;37.780;2024-03-23T04:49:16;98649.41;;;3.88;73.63
82784;BME280;72520;55.762;37.780;2024-03-23T04:52:18;98643.34;;;3.88;73.21
82784;BME280;72520;55.762;37.780;2024-03-23T04:55:24;98635.94;;;3.94;73.38
82784;BME280;72520;55.762;37.780;2024-03-23T04:58:27;98633.13;;;3.97;73.67
82784;BME280;72520;55.762;37.780;2024-03-23T05:01:31;98636.50;;;3.99;73.30
82784;BME280;72520;55.762;37.780;2024-03-23T05:04:35;98635.38;;;4.03;73.62
82784;BME280;72520;55.762;37.780;2024-03-23T05:07:37;98631.47;;;4.10;73.58
82784;BME280;72520;55.762;37.780;2024-03-23T05:10:39;98621.78;;;4.11;73.44
82784;BME280;72520;55.762;37.780;2024-03-23T05:13:43;98626.75;;;4.16;73.64
82784;BME280;72520;55.762;37.780;2024-03-23T05:16:47;98620.94;;;4.10;73.90
82784;BME280;72520;55.762;37.780;2024-03-23T05:19:49;98619.47;;;4.21;73.86
82784;BME280;72520;55.762;37.780;2024-03-23T05:22:51;98605.72;;;4.30;73.51
82784;BME280;72520;55.762;37.780;2024-03-23T05:25:56;98609.88;;;4.34;73.16
82784;BME280;72520;55.762;37.780;2024-03-23T05:29:00;98608.97;;;4.35;74.02
82784;BME280;72520;55.762;37.780;2024-03-23T05:32:01;98604.22;;;4.26;73.97
82784;BME280;72520;55.762;37.780;2024-03-23T05:35:06;98594.66;;;4.25;74.08
82784;BME280;72520;55.762;37.780;2024-03-23T05:38:08;98597.28;;;4.25;73.72
82784;BME280;72520;55.762;37.780;2024-03-23T05:41:21;98588.63;;;4.37;73.63
82784;BME280;72520;55.762;37.780;2024-03-23T05:44:26;98594.09;;;4.34;74.35
82784;BME280;72520;55.762;37.780;2024-03-23T05:47:27;98596.97;;;4.29;74.44
82784;BME280;72520;55.762;37.780;2024-03-23T05:50:29;98586.84;;;4.37;74.55
82784;BME280;72520;55.762;37.780;2024-03-23T05:53:31;98579.59;;;4.41;74.54
82784;BME280;72520;55.762;37.780;2024-03-23T05:56:33;98571.31;;;4.33;75.24
82784;BME280;72520;55.762;37.780;2024-03-23T05:59:36;98575.47;;;4.37;75.33
82784;BME280;72520;55.762;37.780;2024-03-23T06:02:38;98573.69;;;4.37;75.29
82784;BME280;72520;55.762;37.780;2024-03-23T06:05:40;98566.91;;;4.33;75.49
82784;BME280;72520;55.762;37.780;2024-03-23T06:08:44;98552.41;;;4.40;75.93
82784;BME280;72520;55.762;37.780;2024-03-23T06:11:48;98554.47;;;4.49;75.91
82784;BME280;72520;55.762;37.780;2024-03-23T06:14:51;98553.66;;;4.35;75.91
82784;BME280;72520;55.762;37.780;2024-03-23T06:17:54;98549.91;;;4.39;75.91
82784;BME280;72520;55.762;37.780;2024-03-23T06:20:55;98553.66;;;4.35;76.19
82784;BME280;72520;55.762;37.780;2024-03-23T06:24:00;98548.38;;;4.35;75.91
82784;BME280;72520;55.762;37.780;2024-03-23T06:27:02;98543.56;;;4.27;76.21
82784;BME280;72520;55.762;37.780;2024-03-23T06:30:07;98542.72;;;4.41;76.41
82784;BME280;72520;55.762;37.780;2024-03-23T06:33:09;98541.00;;;4.26;76.48
82784;BME280;72520;55.762;37.780;2024-03-23T06:36:14;98538.31;;;4.27;77.09
82784;BME280;72520;55.762;37.780;2024-03-23T06:39:15;98531.63;;;4.50;76.27
82784;BME280;72520;55.762;37.780;2024-03-23T06:42:20;98524.84;;;4.46;76.10
82784;BME280;72520;55.762;37.780;2024-03-23T06:45:23;98522.97;;;4.48;76.29
82784;BME280;72520;55.762;37.780;2024-03-23T06:48:27;98528.06;;;4.65;76.02
82784;BME280;72520;55.762;37.780;2024-03-23T06:51:29;98517.41;;;4.67;75.71
82784;BME280;72520;55.762;37.780;2024-03-23T06:54:31;98515.81;;;4.64;75.68
82784;BME280;72520;55.762;37.780;2024-03-23T06:57:33;98512.44;;;4.48;75.75
82784;BME280;72520;55.762;37.780;2024-03-23T07:00:38;98508.09;;;4.61;75.89
82784;BME280;72520;55.762;37.780;2024-03-23T07:03:41;98509.53;;;4.52;75.98
82784;BME280;72520;55.762;37.780;2024-03-23T07:06:46;98510.66;;;4.34;76.62
82784;BME280;72520;55.762;37.780;2024-03-23T07:09:48;98501.91;;;4.34;76.80
82784;BME280;72520;55.762;37.780;2024-03-23T07:12:51;98497.88;;;4.28;77.12
82784;BME280;72520;55.762;37.780;2024-03-23T07:15:54;98486.47;;;4.28;77.49
82784;BME280;72520;55.762;37.780;2024-03-23T07:18:57;98481.94;;;4.30;77.44
82784;BME280;72520;55.762;37.780;2024-03-23T07:21:58;98483.38;;;4.35;77.58
82784;BME280;72520;55.762;37.780;2024-03-23T07:25:00;98490.25;;;4.52;77.21
82784;BME280;72520;55.762;37.780;2024-03-23T07:28:03;98489.38;;;4.51;76.95
82784;BME280;72520;55.762;37.780;2024-03-23T07:31:08;98490.97;;;4.54;76.66
82784;BME280;72520;55.762;37.780;2024-03-23T07:34:09;98487.81;;;4.49;76.99
82784;BME280;72520;55.762;37.780;2024-03-23T07:37:14;98483.53;;;4.60;76.23
82784;BME280;72520;55.762;37.780;2024-03-23T07:40:16;98489.38;;;4.66;76.32
82784;BME280;72520;55.762;37.780;2024-03-23T07:43:18;98481.16;;;4.70;76.14
82784;BME280;72520;55.762;37.780;2024-03-23T07:46:22;98487.09;;;4.74;75.89
82784;BME280;72520;55.762;37.780;2024-03-23T07:49:29;98472.31;;;4.71;76.45
82784;BME280;72520;55.762;37.780;2024-03-23T07:52:30;98476.94;;;4.68;76.59
82784;BME280;72520;55.762;37.780;2024-03-23T07:55:32;98479.13;;;4.61;76.48
82784;BME280;72520;55.762;37.780;2024-03-23T07:58:35;98476.47;;;4.61;76.98
82784;BME280;72520;55.762;37.780;2024-03-23T08:01:38;98471.19;;;4.75;76.80
82784;BME280;72520;55.762;37.780;2024-03-23T08:04:42;98466.78;;;4.76;76.83
82784;BME280;72520;55.762;37.780;2024-03-23T08:07:45;98461.84;;;4.84;76.77
82784;BME280;72520;55.762;37.780;2024-03-23T08:10:48;98456.50;;;4.71;77.02
82784;BME280;72520;55.762;37.780;2024-03-23T08:13:53;98462.16;;;4.79;77.00
82784;BME280;72520;55.762;37.780;2024-03-23T08:16:57;98456.88;;;4.79;76.67
82784;BME280;72520;55.762;37.780;2024-03-23T08:19:59;98450.44;;;4.83;76.85
82784;BME280;72520;55.762;37.780;2024-03-23T08:23:01;98448.75;;;4.96;76.73
82784;BME280;72520;55.762;37.780;2024-03-23T08:26:04;98448.81;;;4.95;76.49
82784;BME280;72520;55.762;37.780;2024-03-23T08:29:09;98443.63;;;4.93;76.47
82784;BME280;72520;55.762;37.780;2024-03-23T08:32:17;98448.53;;;4.99;76.17
82784;BME280;72520;55.762;37.780;2024-03-23T08:35:19;98435.31;;;5.13;76.08
82784;BME280;72520;55.762;37.780;2024-03-23T08:38:23;98442.00;;;5.05;76.59
82784;BME280;72520;55.762;37.780;2024-03-23T08:41:24;98439.81;;;5.11;76.20
82784;BME280;72520;55.762;37.780;2024-03-23T08:44:26;98436.84;;;5.03;76.94
82784;BME280;72520;55.762;37.780;2024-03-23T08:47:34;98425.69;;;5.12;76.27
82784;BME280;72520;55.762;37.780;2024-03-23T08:50:38;98437.59;;;5.05;76.46
82784;BME280;72520;55.762;37.780;2024-03-23T08:53:41;98420.50;;;5.11;76.41
82784;BME280;72520;55.762;37.780;2024-03-23T08:56:42;98421.47;;;5.10;76.52
82784;BME280;72520;55.762;37.780;2024-03-23T08:59:45;98421.34;;;5.11;76.83
82784;BME280;72520;55.762;37.780;2024-03-23T09:02:49;98413.03;;;5.18;76.14
82784;BME280;72520;55.762;37.780;2024-03-23T09:05:51;98421.72;;;5.20;76.00
82784;BME280;72520;55.762;37.780;2024-03-23T09:08:53;98409.47;;;5.19;76.55
82784;BME280;72520;55.762;37.780;2024-03-23T09:12:06;98402.09;;;5.24;76.37
82784;BME280;72520;55.762;37.780;2024-03-23T09:15:08;98396.41;;;5.30;76.33
82784;BME280;72520;55.762;37.780;2024-03-23T09:18:11;98398.44;;;5.39;76.46
82784;BME280;72520;55.762;37.780;2024-03-23T09:21:13;98394.84;;;5.40;75.68
82784;BME280;72520;55.762;37.780;2024-03-23T09:24:17;98395.44;;;5.31;76.04
82784;BME280;72520;55.762;37.780;2024-03-23T09:27:19;98383.66;;;5.49;75.93
82784;BME280;72520;55.762;37.780;2024-03-23T09:30:22;98387.44;;;5.45;76.04
82784;BME280;72520;55.762;37.780;2024-03-23T09:33:25;98387.06;;;5.51;75.74
82784;BME280;72520;55.762;37.780;2024-03-23T09:36:27;98380.38;;;5.58;75.95
82784;BME280;72520;55.762;37.780;2024-03-23T09:39:37;98378.09;;;5.53;75.66
82784;BME280;72520;55.762;37.780;2024-03-23T09:42:42;98368.47;;;5.65;75.18
82784;BME280;72520;55.762;37.780;2024-03-23T09:45:49;98366.88;;;5.75;75.15
82784;BME280;72520;55.762;37.780;2024-03-23T09:48:55;98366.06;;;5.75;75.01
82784;BME280;72520;55.762;37.780;2024-03-23T09:51:57;98367.78;;;5.88;74.31
82784;BME280;72520;55.762;37.780;2024-03-23T09:54:59;98372.09;;;5.89;74.41
82784;BME280;72520;55.762;37.780;2024-03-23T09:58:01;98367.66;;;5.90;74.13
82784;BME280;72520;55.762;37.780;2024-03-23T10:01:05;98362.28;;;5.91;73.96
82784;BME280;72520;55.762;37.780;2024-03-23T10:04:10;98360.56;;;6.03;74.33
82784;BME280;72520;55.762;37.780;2024-03-23T10:07:14;98356.75;;;6.07;73.96
82784;BME280;72520;55.762;37.780;2024-03-23T10:10:16;98360.66;;;6.14;74.27
82784;BME280;72520;55.762;37.780;2024-03-23T10:13:24;98361.59;;;6.13;73.69
82784;BME280;72520;55.762;37.780;2024-03-23T10:16:25;98355.28;;;6.16;73.75
82784;BME280;72520;55.762;37.780;2024-03-23T10:19:32;98351.44;;;6.32;72.67
82784;BME280;72520;55.762;37.780;2024-03-23T10:22:38;98346.84;;;6.47;72.22
82784;BME280;72520;55.762;37.780;2024-03-23T10:25:43;98353.63;;;6.38;72.69
82784;BME280;72520;55.762;37.780;2024-03-23T10:28:53;98349.13;;;6.28;73.28
82784;BME280;72520;55.762;37.780;2024-03-23T10:32:07;98338.69;;;6.13;73.84
82784;BME280;72520;55.762;37.780;2024-03-23T10:35:20;98340.75;;;6.34;73.15
82784;BME280;72520;55.762;37.780;2024-03-23T10:38:24;98340.47;;;6.26;73.79
82784;BME280;72520;55.762;37.780;2024-03-23T10:41:27;98338.09;;;6.34;73.41
82784;BME280;72520;55.762;37.780;2024-03-23T10:44:33;98336.38;;;6.45;72.82
82784;BME280;72520;55.762;37.780;2024-03-23T10:47:36;98336.03;;;6.50;72.30
82784;BME280;72520;55.762;37.780;2024-03-23T10:50:41;98339.34;;;6.41;72.86
82784;BME280;72520;55.762;37.780;2024-03-23T10:53:43;98336.72;;;6.64;71.95
82784;BME280;72520;55.762;37.780;2024-03-23T10:56:47;98332.50;;;6.62;72.64
82784;BME280;72520;55.762;37.780;2024-03-23T10:59:51;98335.25;;;6.60;72.66
82784;BME280;72520;55.762;37.780;2024-03-23T11:02:56;98331.72;;;6.73;71.94
82784;BME280;72520;55.762;37.780;2024-03-23T11:06:02;98331.97;;;6.70;72.29
82784;BME280;72520;55.762;37.780;2024-03-23T11:09:04;98331.28;;;6.55;72.53
82784;BME280;72520;55.762;37.780;2024-03-23T11:12:33;98330.72;;;6.62;73.06
82784;BME280;72520;55.762;37.780;2024-03-23T11:15:34;98332.00;;;6.57;73.09
82784;BME280;72520;55.762;37.780;2024-03-23T11:18:38;98330.09;;;6.59;72.86
82784;BME280;72520;55.762;37.780;2024-03-23T11:21:56;98327.50;;;6.46;73.34
82784;BME280;72520;55.762;37.780;2024-03-23T11:24:58;98317.88;;;6.45;73.55
82784;BME280;72520;55.762;37.780;2024-03-23T11:28:13;98314.16;;;6.48;73.43
82784;BME280;72520;55.762;37.780;2024-03-23T11:31:16;98302.09;;;6.56;73.07
82784;BME280;72520;55.762;37.780;2024-03-23T11:34:19;98313.16;;;6.61;72.98
82784;BME280;72520;55.762;37.780;2024-03-23T11:37:25;98311.13;;;6.65;73.08
82784;BME280;72520;55.762;37.780;2024-03-23T11:40:27;98299.78;;;6.76;72.21
82784;BME280;72520;55.762;37.780;2024-03-23T11:43:28;98304.72;;;6.80;72.26
82784;BME280;72520;55.762;37.780;2024-03-23T11:46:33;98309.56;;;6.86;72.08
82784;BME280;72520;55.762;37.780;2024-03-23T11:49:38;98303.88;;;6.80;72.44
82784;BME280;72520;55.762;37.780;2024-03-23T11:52:43;98307.31;;;6.69;72.55
82784;BME280;72520;55.762;37.780;2024-03-23T11:55:47;98294.41;;;6.88;72.77
82784;BME280;72520;55.762;37.780;2024-03-23T11:58:48;98293.91;;;6.83;72.21
82784;BME280;72520;55.762;37.780;2024-03-23T12:01:52;98292.91;;;6.73;72.59
82784;BME280;72520;55.762;37.780;2024-03-23T12:04:53;98305.75;;;6.67;74.15
82784;BME280;72520;55.762;37.780;2024-03-23T12:08:15;98296.34;;;6.62;73.83
82784;BME280;72520;55.762;37.780;2024-03-23T12:11:17;98305.56;;;6.57;74.32
82784;BME280;72520;55.762;37.780;2024-03-23T12:14:20;98290.69;;;6.56;74.57
82784;BME280;72520;55.762;37.780;2024-03-23T12:17:21;98303.03;;;6.55;75.17
82784;BME280;72520;55.762;37.780;2024-03-23T12:20:24;98304.31;;;6.50;75.13
82784;BME280;72520;55.762;37.780;2024-03-23T12:23:28;98302.09;;;6.56;74.47
82784;BME280;72520;55.762;37.780;2024-03-23T12:26:31;98295.91;;;6.45;75.00
82784;BME280;72520;55.762;37.780;2024-03-23T12:29:36;98297.47;;;6.47;75.22
82784;BME280;72520;55.762;37.780;2024-03-23T12:32:39;98295.78;;;6.46;75.32
82784;BME280;72520;55.762;37.780;2024-03-23T12:35:42;98299.00;;;6.39;75.63
82784;BME280;72520;55.762;37.780;2024-03-23T12:38:45;98297.91;;;6.41;75.06
82784;BME280;72520;55.762;37.780;2024-03-23T12:41:47;98303.97;;;6.31;76.00
82784;BME280;72520;55.762;37.780;2024-03-23T12:44:56;98304.06;;;6.42;75.05
82784;BME280;72520;55.762;37.780;2024-03-23T12:48:00;98299.22;;;6.36;75.69
82784;BME280;72520;55.762;37.780;2024-03-23T12:51:02;98297.75;;;6.32;75.50
82784;BME280;72520;55.762;37.780;2024-03-23T12:54:04;98299.75;;;6.28;75.94
82784;BME280;72520;55.762;37.780;2024-03-23T12:57:09;98292.94;;;6.37;75.54
82784;BME280;72520;55.762;37.780;2024-03-23T13:00:11;98301.84;;;6.36;75.29
82784;BME280;72520;55.762;37.780;2024-03-23T13:03:14;98290.72;;;6.43;74.98
82784;BME280;72520;55.762;37.780;2024-03-23T13:06:18;98287.34;;;6.41;75.77
82784;BME280;72520;55.762;37.780;2024-03-23T13:09:22;98291.28;;;6.36;75.78
82784;BME280;72520;55.762;37.780;2024-03-23T13:12:24;98288.34;;;6.28;75.90
82784;BME280;72520;55.762;37.780;2024-03-23T13:15:26;98283.59;;;6.33;76.13
82784;BME280;72520;55.762;37.780;2024-03-23T13:18:28;98291.50;;;6.33;76.00
82784;BME280;72520;55.762;37.780;2024-03-23T13:21:32;98284.53;;;6.32;76.02
82784;BME280;72520;55.762;37.780;2024-03-23T13:24:38;98292.22;;;6.35;76.26
82784;BME280;72520;55.762;37.780;2024-03-23T13:27:42;98282.13;;;6.29;76.33
82784;BME280;72520;55.762;37.780;2024-03-23T13:30:50;98281.50;;;6.25;76.87
82784;BME280;72520;55.762;37.780;2024-03-23T13:33:53;98280.03;;;6.21;77.44
82784;BME280;72520;55.762;37.780;2024-03-23T13:36:58;98272.78;;;6.36;76.01
82784;BME280;72520;55.762;37.780;2024-03-23T13:40:01;98285.69;;;6.28;76.23
82784;BME280;72520;55.762;37.780;2024-03-23T13:43:04;98275.59;;;6.22;76.36
82784;BME280;72520;55.762;37.780;2024-03-23T13:46:11;98279.69;;;6.26;76.87
82784;BME280;72520;55.762;37.780;2024-03-23T13:49:24;98282.97;;;6.17;76.87
82784;BME280;72520;55.762;37.780;2024-03-23T13:52:26;98276.94;;;6.27;76.72
82784;BME280;72520;55.762;37.780;2024-03-23T13:55:31;98271.78;;;6.26;76.94
82784;BME280;72520;55.762;37.780;2024-03-23T13:58:32;98278.00;;;6.25;76.96
82784;BME280;72520;55.762;37.780;2024-03-23T14:01:36;98279.75;;;6.37;76.61
82784;BME280;72520;55.762;37.780;2024-03-23T14:04:39;98265.09;;;6.56;75.95
82784;BME280;72520;55.762;37.780;2024-03-23T14:07:44;98273.44;;;6.50;75.90
82784;BME280;72520;55.762;37.780;2024-03-23T14:10:49;98257.09;;;6.45;75.73
82784;BME280;72520;55.762;37.780;2024-03-23T14:13:52;98271.16;;;6.46;75.38
82784;BME280;72520;55.762;37.780;2024-03-23T14:16:55;98267.28;;;6.39;76.10
82784;BME280;72520;55.762;37.780;2024-03-23T14:20:00;98268.53;;;6.46;76.26
82784;BME280;72520;55.762;37.780;2024-03-23T14:23:01;98272.97;;;6.45;75.96
82784;BME280;72520;55.762;37.780;2024-03-23T14:26:05;98271.78;;;6.84;74.79
82784;BME280;72520;55.762;37.780;2024-03-23T14:29:06;98259.72;;;6.69;74.61
82784;BME280;72520;55.762;37.780;2024-03-23T14:32:10;98262.69;;;6.64;74.95
82784;BME280;72520;55.762;37.780;2024-03-23T14:35:11;98263.94;;;6.72;74.73
82784;BME280;72520;55.762;37.780;2024-03-23T14:38:13;98268.44;;;6.82;74.50
82784;BME280;72520;55.762;37.780;2024-03-23T14:41:17;98259.53;;;6.83;74.21
82784;BME280;72520;55.762;37.780;2024-03-23T14:44:19;98247.59;;;6.78;74.47
82784;BME280;72520;55.762;37.780;2024-03-23T14:47:21;98266.00;;;6.79;74.60
82784;BME280;72520;55.762;37.780;2024-03-23T14:50:23;98263.94;;;6.72;74.27
82784;BME280;72520;55.762;37.780;2024-03-23T14:53:25;98257.41;;;6.64;75.41
82784;BME280;72520;55.762;37.780;2024-03-23T14:56:28;98266.13;;;6.54;75.08
82784;BME280;72520;55.762;37.780;2024-03-23T14:59:35;98253.22;;;6.62;76.12
82784;BME280;72520;55.762;37.780;2024-03-23T15:02:37;98252.88;;;6.67;75.50
82784;BME280;72520;55.762;37.780;2024-03-23T15:05:39;98253.22;;;6.62;75.32
82784;BME280;72520;55.762;37.780;2024-03-23T15:08:41;98262.59;;;6.66;75.55
82784;BME280;72520;55.762;37.780;2024-03-23T15:11:45;98260.84;;;6.54;75.99
82784;BME280;72520;55.762;37.780;2024-03-23T15:14:46;98264.00;;;6.59;75.15
82784;BME280;72520;55.762;37.780;2024-03-23T15:17:48;98260.81;;;6.67;75.92
82784;BME280;72520;55.762;37.780;2024-03-23T15:20:54;98253.75;;;6.78;75.87
82784;BME280;72520;55.762;37.780;2024-03-23T15:23:57;98258.53;;;6.73;75.74
82784;BME280;72520;55.762;37.780;2024-03-23T15:27:00;98255.09;;;6.84;75.38
82784;BME280;72520;55.762;37.780;2024-03-23T15:30:05;98266.97;;;6.78;74.87
82784;BME280;72520;55.762;37.780;2024-03-23T15:33:08;98273.03;;;6.68;75.64
82784;BME280;72520;55.762;37.780;2024-03-23T15:36:10;98267.28;;;6.74;75.20
82784;BME280;72520;55.762;37.780;2024-03-23T15:39:14;98274.28;;;6.75;75.31
82784;BME280;72520;55.762;37.780;2024-03-23T15:42:18;98272.16;;;6.80;75.47
82784;BME280;72520;55.762;37.780;2024-03-23T15:45:19;98266.00;;;6.79;74.71
82784;BME280;72520;55.762;37.780;2024-03-23T15:48:22;98273.19;;;6.77;75.11
82784;BME280;72520;55.762;37.780;2024-03-23T15:51:25;98273.00;;;6.80;75.28
82784;BME280;72520;55.762;37.780;2024-03-23T15:54:33;98281.66;;;6.82;75.31
82784;BME280;72520;55.762;37.780;2024-03-23T15:57:37;98280.81;;;6.82;75.69
82784;BME280;72520;55.762;37.780;2024-03-23T16:00:38;98290.16;;;6.75;75.09
82784;BME280;72520;55.762;37.780;2024-03-23T16:03:42;98298.69;;;6.78;74.95
82784;BME280;72520;55.762;37.780;2024-03-23T16:06:43;98287.38;;;7.00;75.82
82784;BME280;72520;55.762;37.780;2024-03-23T16:09:45;98292.28;;;6.93;74.45
82784;BME280;72520;55.762;37.780;2024-03-23T16:12:48;98288.72;;;6.82;74.83
82784;BME280;72520;55.762;37.780;2024-03-23T16:15:55;98301.25;;;6.91;75.17
82784;BME280;72520;55.762;37.780;2024-03-23T16:19:00;98296.38;;;6.97;74.37
82784;BME280;72520;55.762;37.780;2024-03-23T16:22:05;98304.56;;;7.05;74.15
82784;BME280;72520;55.762;37.780;2024-03-23T16:25:10;98301.69;;;6.97;73.39
82784;BME280;72520;55.762;37.780;2024-03-23T16:28:13;98307.44;;;7.02;74.48
82784;BME280;72520;55.762;37.780;2024-03-23T16:31:15;98308.16;;;7.04;74.24
82784;BME280;72520;55.762;37.780;2024-03-23T16:34:17;98308.16;;;7.04;74.12
82784;BME280;72520;55.762;37.780;2024-03-23T16:37:22;98324.78;;;7.06;73.93
82784;BME280;72520;55.762;37.780;2024-03-23T16:40:26;98325.97;;;7.02;74.03
82784;BME280;72520;55.762;37.780;2024-03-23T16:43:30;98332.47;;;7.09;74.21
82784;BME280;72520;55.762;37.780;2024-03-23T16:46:33;98320.34;;;7.07;73.72
82784;BME280;72520;55.762;37.780;2024-03-23T16:49:36;98329.59;;;7.12;73.54
82784;BME280;72520;55.762;37.780;2024-03-23T16:52:37;98322.84;;;7.08;73.70
82784;BME280;72520;55.762;37.780;2024-03-23T16:55:40;98318.44;;;7.20;73.45
82784;BME280;72520;55.762;37.780;2024-03-23T16:58:47;98323.38;;;7.25;72.51
82784;BME280;72520;55.762;37.780;2024-03-23T17:01:50;98325.88;;;7.15;73.17
82784;BME280;72520;55.762;37.780;2024-03-23T17:04:59;98318.69;;;7.17;73.58